Time;durP1;ratioP1;P1;durP2;ratioP2;P2;SDS_P1;SDS_P2;PMS_P1;PMS_P2;Temp;Humidity;BMP_temperature;BMP_pressure;BME280_temperature;BME280_humidity;BME280_pressure;Samples;Min_cycle;Max_cycle;Signal;HPM_P1;HPM_P2
2022/08/26 00:00:42;;;;;;;10.73;5.00;;;;;;;25.86;54.59;99861.28;5001094;28;20938;-70
2022/08/26 00:03:07;;;;;;;6.07;4.73;;;;;;;25.86;55.06;99862.09;4998785;28;20458;-68
2022/08/26 00:05:32;;;;;;;7.83;5.07;;;;;;;25.84;54.37;99861.72;5016590;28;20450;-70
2022/08/26 00:07:58;;;;;;;4.80;4.20;;;;;;;25.83;54.79;99859.25;5016381;28;20172;-69
2022/08/26 00:10:24;;;;;;;6.30;4.37;;;;;;;25.83;54.71;99854.28;5011416;28;20222;-70
2022/08/26 00:12:49;;;;;;;6.37;4.70;;;;;;;25.83;54.48;99860.09;4996830;28;20268;-70
2022/08/26 00:15:21;;;;;;;6.33;4.53;;;;;;;25.83;54.94;99859.25;4996280;28;20239;-72
2022/08/26 00:17:47;;;;;;;5.90;4.93;;;;;;;25.83;54.04;99857.19;4980112;28;20234;-72
2022/08/26 00:20:13;;;;;;;7.50;4.57;;;;;;;25.83;55.05;99854.28;4995688;28;20428;-70
2022/08/26 00:22:39;;;;;;;5.77;4.30;;;;;;;25.83;54.54;99853.47;5027463;28;20199;-70
2022/08/26 00:25:05;;;;;;;8.63;4.80;;;;;;;25.82;54.81;99855.56;5015830;28;20423;-70
2022/08/26 00:27:32;;;;;;;5.33;4.47;;;;;;;25.82;54.46;99858.44;4999951;28;20187;-70
2022/08/26 00:29:59;;;;;;;7.17;4.60;;;;;;;25.81;54.40;99858.88;5015774;28;20416;-70
2022/08/26 00:32:24;;;;;;;6.33;4.80;;;;;;;25.81;54.55;99865.50;5011878;28;20426;-68
2022/08/26 00:34:50;;;;;;;8.73;4.60;;;;;;;25.80;54.71;99869.63;5016128;28;20803;-69
2022/08/26 00:37:15;;;;;;;6.00;4.20;;;;;;;25.79;54.18;99850.66;5015242;28;20173;-71
2022/08/26 00:39:41;;;;;;;6.33;4.10;;;;;;;25.79;54.83;99864.31;5014438;28;20548;-68
2022/08/26 00:42:07;;;;;;;7.43;4.70;;;;;;;25.79;54.38;99865.09;5032895;28;20698;-68
2022/08/26 00:44:32;;;;;;;5.87;4.43;;;;;;;25.79;54.17;99870.91;5000153;28;20236;-70
2022/08/26 00:46:59;;;;;;;9.83;4.67;;;;;;;25.78;54.39;99866.38;4998348;28;20835;-68
2022/08/26 00:49:46;;;;;;;7.90;4.77;;;;;;;25.79;54.28;99870.91;4997939;28;20199;-68
2022/08/26 00:52:14;;;;;;;5.53;4.57;;;;;;;25.78;54.81;99866.38;4991622;28;20576;-70
2022/08/26 00:54:45;;;;;;;6.40;4.30;;;;;;;25.76;54.22;99866.00;4993160;28;20393;-70
2022/08/26 00:57:12;;;;;;;8.13;4.57;;;;;;;25.74;54.23;99862.72;4976136;28;20412;-70
2022/08/26 00:59:38;;;;;;;7.60;4.53;;;;;;;25.73;54.87;99866.03;4975569;28;20450;-71
2022/08/26 01:02:03;;;;;;;6.13;4.60;;;;;;;25.72;54.11;99867.31;4974637;28;20463;-72
2022/08/26 01:04:30;;;;;;;6.20;4.57;;;;;;;25.72;54.11;99871.03;4974222;28;20184;-69
2022/08/26 01:06:56;;;;;;;6.40;4.67;;;;;;;25.72;54.06;99876.81;4974400;28;20169;-72
2022/08/26 01:09:22;;;;;;;6.70;4.73;;;;;;;25.72;54.14;99876.81;4974729;28;20479;-70
2022/08/26 01:11:48;;;;;;;7.27;5.10;;;;;;;25.73;54.33;99880.50;4989243;28;20959;-68
2022/08/26 01:14:13;;;;;;;5.97;4.27;;;;;;;25.73;54.77;99872.66;4974362;28;20192;-68
2022/08/26 01:16:39;;;;;;;5.77;4.63;;;;;;;25.73;54.26;99875.56;4974364;28;20794;-68
2022/08/26 01:19:09;;;;;;;6.13;5.10;;;;;;;25.73;54.34;99878.44;4992529;28;20177;-68
2022/08/26 01:21:38;;;;;;;6.40;3.90;;;;;;;25.71;53.75;99874.34;4975544;28;20208;-72
2022/08/26 01:24:03;;;;;;;7.40;4.97;;;;;;;25.70;54.08;99870.63;4963257;28;20845;-70
2022/08/26 01:26:36;;;;;;;7.90;4.70;;;;;;;25.70;54.08;99872.72;4962473;28;20503;-68
2022/08/26 01:29:03;;;;;;;5.03;4.30;;;;;;;25.70;54.08;99879.31;4978967;28;20185;-72
2022/08/26 01:31:33;;;;;;;5.10;4.60;;;;;;;25.71;54.01;99878.09;4978132;28;20522;-72
2022/08/26 01:33:59;;;;;;;5.60;4.53;;;;;;;25.71;54.00;99875.19;4979332;28;20892;-68
2022/08/26 01:36:25;;;;;;;5.67;4.70;;;;;;;25.71;54.39;99880.97;5012259;28;20424;-68
2022/08/26 01:38:50;;;;;;;5.67;4.40;;;;;;;25.70;53.82;99882.22;5012053;28;20173;-69
2022/08/26 01:41:15;;;;;;;7.80;4.80;;;;;;;25.65;53.97;99879.81;4993808;28;20177;-68
2022/08/26 01:43:45;;;;;;;6.37;4.90;;;;;;;25.64;53.68;99880.28;4993845;28;20251;-70
2022/08/26 01:46:10;;;;;;;8.50;5.60;;;;;;;25.62;53.92;99883.59;4994334;28;20255;-70
2022/08/26 01:48:36;;;;;;;6.53;4.63;;;;;;;25.64;53.59;99894.75;4995810;28;20456;-68
2022/08/26 01:51:02;;;;;;;5.60;4.73;;;;;;;25.65;54.03;99882.72;4981784;28;20197;-72
2022/08/26 01:53:28;;;;;;;5.77;4.90;;;;;;;25.66;53.87;99883.53;5003654;28;20224;-70
2022/08/26 01:55:56;;;;;;;5.73;4.50;;;;;;;25.65;53.97;99888.50;5003571;28;20425;-68
2022/08/26 01:58:37;;;;;;;7.50;4.60;;;;;;;25.65;53.74;99888.50;4987480;28;20174;-72
2022/08/26 02:01:04;;;;;;;7.53;4.57;;;;;;;25.65;53.79;99893.47;4974829;28;20397;-68
2022/08/26 02:03:29;;;;;;;5.47;4.30;;;;;;;25.65;54.14;99896.38;4975367;28;20457;-70
2022/08/26 02:05:59;;;;;;;10.33;4.47;;;;;;;25.62;53.63;99898.06;4990491;28;21029;-69
2022/08/26 02:08:35;;;;;;;6.53;5.00;;;;;;;25.60;53.79;99897.69;4975864;28;20169;-70
2022/08/26 02:11:01;;;;;;;6.70;5.30;;;;;;;25.61;53.99;99899.31;5006513;28;20420;-70
2022/08/26 02:13:28;;;;;;;5.33;4.33;;;;;;;25.62;53.75;99895.16;4973596;28;20471;-72
2022/08/26 02:15:54;;;;;;;5.47;4.30;;;;;;;25.62;53.79;99900.94;4989041;28;20170;-68
2022/08/26 02:18:19;;;;;;;6.27;4.50;;;;;;;25.63;54.22;99902.59;5009274;28;20423;-68
2022/08/26 02:20:45;;;;;;;5.30;4.10;;;;;;;25.61;53.52;99899.31;4981759;28;20197;-70
2022/08/26 02:23:10;;;;;;;5.00;4.30;;;;;;;25.62;53.89;99900.94;5005037;28;20213;-70
2022/08/26 02:26:02;;;;;;;7.33;4.90;;;;;;;25.63;53.67;99910.44;5006499;28;20719;-70
2022/08/26 02:28:30;;;;;;;6.57;4.80;;;;;;;25.61;53.99;99910.88;5008029;28;20186;-68
2022/08/26 02:30:56;;;;;;;5.53;4.67;;;;;;;25.61;53.82;99908.00;4990013;28;20842;-68
2022/08/26 02:33:21;;;;;;;4.93;4.43;;;;;;;25.60;53.98;99915.03;5010757;28;20412;-68
2022/08/26 02:35:46;;;;;;;6.20;4.93;;;;;;;25.60;53.78;99902.66;4993105;28;20227;-72
2022/08/26 02:38:12;;;;;;;8.43;5.30;;;;;;;25.60;53.67;99902.66;5009229;28;20204;-72
2022/08/26 02:40:39;;;;;;;6.00;4.70;;;;;;;25.59;53.57;99907.59;4993018;28;20650;-68
2022/08/26 02:43:06;;;;;;;9.20;4.90;;;;;;;25.60;54.04;99909.25;5010436;28;20702;-70
2022/08/26 02:45:32;;;;;;;5.47;4.33;;;;;;;25.58;53.54;99900.19;4989858;28;20460;-68
2022/08/26 02:47:57;;;;;;;6.20;4.40;;;;;;;25.58;53.86;99903.09;5006009;28;20413;-69
2022/08/26 02:50:24;;;;;;;5.63;4.57;;;;;;;25.58;53.86;99903.09;5006962;28;20185;-68
2022/08/26 02:52:50;;;;;;;6.10;4.10;;;;;;;25.58;54.02;99894.41;5005130;28;20225;-70
2022/08/26 02:55:15;;;;;;;5.13;4.37;;;;;;;25.57;53.63;99900.63;5006234;28;20432;-68
2022/08/26 02:57:40;;;;;;;5.63;4.63;;;;;;;25.56;53.80;99905.59;4991276;28;20170;-71
2022/08/26 03:00:07;;;;;;;6.40;5.07;;;;;;;25.56;53.85;99896.94;4989416;28;20564;-68
2022/08/26 03:02:33;;;;;;;5.60;4.13;;;;;;;25.56;53.72;99899.00;5005888;28;20205;-72
2022/08/26 03:04:58;;;;;;;8.03;4.77;;;;;;;25.56;53.88;99902.72;4988734;28;21245;-69
2022/08/26 03:07:23;;;;;;;6.53;5.03;;;;;;;25.55;53.62;99901.09;4987829;28;20648;-68
2022/08/26 03:09:49;;;;;;;6.17;5.07;;;;;;;25.56;53.62;99896.09;4986109;28;20180;-69
2022/08/26 03:12:15;;;;;;;6.10;4.43;;;;;;;25.56;53.47;99896.09;4988384;28;20897;-70
2022/08/26 03:14:40;;;;;;;5.27;4.37;;;;;;;25.54;53.54;99884.97;4987252;28;20182;-70
2022/08/26 03:17:05;;;;;;;6.80;5.27;;;;;;;25.54;53.97;99893.66;4988479;28;20185;-70
2022/08/26 03:19:31;;;;;;;6.30;4.60;;;;;;;25.54;53.65;99898.63;4987580;28;20195;-68
2022/08/26 03:21:56;;;;;;;5.67;3.93;;;;;;;25.53;53.87;99899.88;5004426;28;20224;-71
2022/08/26 03:24:22;;;;;;;4.97;4.27;;;;;;;25.53;53.57;99891.22;5005465;28;20330;-69
2022/08/26 03:26:47;;;;;;;6.47;4.33;;;;;;;25.52;53.74;99899.06;5004160;28;20810;-68
2022/08/26 03:31:57;;;;;;;14.47;5.70;;;;;;;25.52;53.37;99901.94;5005468;28;20176;-68
2022/08/26 03:34:23;;;;;;;6.20;4.63;;;;;;;25.50;53.31;99895.81;4993657;28;20437;-68
2022/08/26 03:36:48;;;;;;;7.47;4.87;;;;;;;25.48;53.35;99901.19;5008781;28;20428;-70
2022/08/26 03:39:14;;;;;;;8.27;5.23;;;;;;;25.48;53.45;99903.28;4992681;28;20177;-68
2022/08/26 03:41:39;;;;;;;6.60;4.83;;;;;;;25.47;53.62;99902.44;5009872;28;20543;-70
2022/08/26 03:44:05;;;;;;;5.60;4.40;;;;;;;25.48;53.56;99903.28;5012271;28;20544;-70
2022/08/26 03:46:31;;;;;;;7.77;5.47;;;;;;;25.48;53.56;99897.50;5009870;28;20181;-68
2022/08/26 03:48:57;;;;;;;6.30;4.80;;;;;;;25.48;53.33;99886.72;4996220;28;20525;-68
2022/08/26 03:51:23;;;;;;;9.27;5.33;;;;;;;25.49;53.75;99902.00;4981340;28;20428;-70
2022/08/26 03:53:49;;;;;;;5.43;4.43;;;;;;;25.48;53.40;99900.38;5020018;28;20453;-68
2022/08/26 03:56:14;;;;;;;5.70;4.53;;;;;;;25.49;53.77;99902.00;5010278;28;20269;-69
2022/08/26 03:58:40;;;;;;;7.60;4.80;;;;;;;25.48;53.53;99906.16;4994191;28;20177;-69
2022/08/26 04:01:05;;;;;;;8.00;5.37;;;;;;;25.46;53.29;99903.72;5009598;28;20174;-68
2022/08/26 04:06:15;;;;;;;16.93;5.53;;;;;;;25.42;53.19;99914.50;5020675;28;20180;-69
2022/08/26 04:08:40;;;;;;;8.73;5.70;;;;;;;25.41;53.39;99907.09;4992191;28;20424;-71
2022/08/26 04:11:06;;;;;;;6.87;5.47;;;;;;;25.40;53.76;99917.03;5029193;28;20415;-68
2022/08/26 04:13:31;;;;;;;7.80;5.90;;;;;;;25.40;53.41;99902.56;4995796;28;20176;-68
2022/08/26 04:15:58;;;;;;;8.00;5.10;;;;;;;25.42;53.23;99910.78;4995967;28;20176;-70
2022/08/26 04:18:26;;;;;;;5.50;4.43;;;;;;;25.42;53.64;99899.22;4995771;28;20251;-69
2022/08/26 04:20:52;;;;;;;6.57;5.27;;;;;;;25.42;53.45;99899.22;4984735;28;20482;-68
2022/08/26 04:23:17;;;;;;;5.50;4.53;;;;;;;25.43;53.66;99892.22;5009335;28;20456;-70
2022/08/26 04:25:43;;;;;;;6.90;5.17;;;;;;;25.42;53.31;99902.94;5009033;28;20173;-68
2022/08/26 04:28:08;;;;;;;6.43;4.80;;;;;;;25.42;53.51;99905.00;5008727;28;20550;-70
2022/08/26 04:30:37;;;;;;;6.30;5.07;;;;;;;25.42;53.45;99902.94;4992310;28;20178;-71
2022/08/26 04:33:03;;;;;;;6.60;4.70;;;;;;;25.43;53.24;99915.34;5009567;28;20184;-68
2022/08/26 04:35:29;;;;;;;5.90;4.33;;;;;;;25.40;53.45;99893.91;5013732;28;20489;-68
2022/08/26 04:37:55;;;;;;;8.60;5.77;;;;;;;25.41;53.37;99900.47;4991911;28;20183;-72
2022/08/26 04:40:20;;;;;;;8.03;5.20;;;;;;;25.39;53.40;99903.81;5010414;28;20435;-69
2022/08/26 04:42:45;;;;;;;9.80;5.57;;;;;;;25.38;53.44;99910.03;5009180;28;20200;-69
2022/08/26 04:45:11;;;;;;;7.13;4.73;;;;;;;25.37;53.53;99909.22;5009476;28;20180;-68
2022/08/26 04:47:36;;;;;;;7.17;5.03;;;;;;;25.36;53.33;99910.47;4991547;28;20693;-68
2022/08/26 04:50:02;;;;;;;8.40;5.33;;;;;;;25.36;53.55;99912.53;4991021;28;20192;-70
2022/08/26 04:52:27;;;;;;;6.60;4.80;;;;;;;25.37;53.87;99914.16;4993170;28;20244;-68
2022/08/26 04:54:53;;;;;;;7.87;5.90;;;;;;;25.38;53.32;99912.94;5010254;28;20184;-72
2022/08/26 04:57:18;;;;;;;6.53;4.80;;;;;;;25.37;53.27;99912.09;5011865;28;20165;-69
2022/08/26 04:59:44;;;;;;;6.93;5.43;;;;;;;25.37;53.65;99917.88;5010244;28;20196;-70
2022/08/26 05:02:10;;;;;;;7.07;5.47;;;;;;;25.36;53.44;99922.03;5010537;28;20958;-68
2022/08/26 05:04:35;;;;;;;12.47;6.00;;;;;;;25.37;53.26;99923.66;5011575;28;20232;-68
2022/08/26 05:07:01;;;;;;;6.77;5.47;;;;;;;25.36;53.46;99927.81;4994084;28;20434;-70
2022/08/26 05:09:26;;;;;;;10.20;5.70;;;;;;;25.37;53.43;99925.72;5010804;28;20545;-68
2022/08/26 05:11:52;;;;;;;7.87;5.17;;;;;;;25.37;53.08;99928.63;5011557;28;20177;-70
2022/08/26 05:14:19;;;;;;;8.23;5.70;;;;;;;25.36;53.66;99932.78;4978685;28;20185;-71
2022/08/26 05:16:45;;;;;;;8.20;4.93;;;;;;;25.36;53.35;99936.50;5010657;28;20499;-71
2022/08/26 05:19:10;;;;;;;9.27;5.30;;;;;;;25.37;53.50;99937.28;5012374;28;20423;-71
2022/08/26 05:21:37;;;;;;;6.33;4.83;;;;;;;25.36;53.55;99939.38;5011641;28;20181;-69
2022/08/26 05:24:03;;;;;;;7.07;4.97;;;;;;;25.37;53.28;99932.34;5012366;28;20240;-68
2022/08/26 05:26:30;;;;;;;6.27;4.50;;;;;;;25.37;53.04;99941.00;4978256;28;20451;-70
2022/08/26 05:28:55;;;;;;;7.43;4.50;;;;;;;25.35;53.17;99929.09;4994237;28;20423;-68
2022/08/26 05:31:28;;;;;;;5.93;4.53;;;;;;;25.36;53.58;99932.78;5010484;28;20435;-69
2022/08/26 05:33:56;;;;;;;5.70;4.63;;;;;;;25.37;52.95;99938.13;4994005;28;20181;-68
2022/08/26 05:36:22;;;;;;;7.97;5.00;;;;;;;25.37;53.11;99941.00;5011971;28;20424;-70
2022/08/26 05:38:48;;;;;;;6.30;5.20;;;;;;;25.37;53.74;99946.78;4994983;28;20416;-68
2022/08/26 05:41:15;;;;;;;11.10;5.30;;;;;;;25.36;53.25;99945.16;4995129;28;20520;-70
2022/08/26 05:43:41;;;;;;;6.13;4.80;;;;;;;25.36;53.12;99944.34;4980640;28;20223;-72
2022/08/26 05:46:06;;;;;;;8.80;5.20;;;;;;;25.09;53.89;99952.94;5011091;28;20486;-68
2022/08/26 05:48:32;;;;;;;6.67;5.37;;;;;;;25.16;55.51;99952.84;5014510;28;20189;-67
2022/08/26 05:51:02;;;;;;;10.70;6.03;;;;;;;25.17;56.03;99960.28;4982828;28;20182;-71
2022/08/26 05:53:27;;;;;;;14.00;8.40;;;;;;;25.58;57.65;99960.09;4994601;28;20819;-71
2022/08/26 05:55:53;;;;;;;13.60;7.77;;;;;;;25.70;58.04;99965.28;4996181;28;20540;-72
2022/08/26 05:58:19;;;;;;;19.20;8.30;;;;;;;25.43;57.38;99953.72;4981582;28;20283;-68
2022/08/26 06:00:47;;;;;;;16.37;8.07;;;;;;;25.28;57.95;99958.06;4976588;28;20189;-71
2022/08/26 06:03:13;;;;;;;12.00;7.50;;;;;;;25.03;59.02;99963.34;4980829;28;20491;-69
2022/08/26 06:05:39;;;;;;;16.33;6.43;;;;;;;25.20;57.75;99959.41;4993701;28;20447;-67
2022/08/26 06:08:12;;;;;;;14.23;6.30;;;;;;;25.25;56.56;99969.66;4979234;28;20186;-73
2022/08/26 06:10:48;;;;;;;14.80;5.90;;;;;;;25.22;56.70;99964.72;4982865;28;20444;-72
2022/08/26 06:13:27;;;;;;;11.63;6.63;;;;;;;25.21;57.08;99963.94;5124266;27;20694;-61
2022/08/26 06:15:53;;;;;;;12.17;6.07;;;;;;;25.16;57.58;99967.31;5108436;28;20489;-61
2022/08/26 06:18:33;;;;;;;10.27;6.13;;;;;;;25.20;56.76;99970.97;5108846;28;20465;-61
2022/08/26 06:20:59;;;;;;;10.40;6.10;;;;;;;25.20;56.31;99970.97;5108539;28;20185;-62
2022/08/26 06:26:11;;;;;;;12.63;6.17;;;;;;;25.45;57.13;99964.84;5107775;28;20407;-61
2022/08/26 06:28:36;;;;;;;10.27;6.30;;;;;;;25.34;56.64;99975.75;5108390;28;20428;-61
2022/08/26 06:31:02;;;;;;;15.23;6.87;;;;;;;25.28;57.20;99966.75;5106693;28;20432;-62
2022/08/26 06:33:27;;;;;;;10.57;6.47;;;;;;;25.34;57.33;99982.34;5108473;28;20172;-61
2022/08/26 06:35:53;;;;;;;12.60;6.97;;;;;;;25.33;57.04;99982.78;5108190;28;20185;-62
2022/08/26 06:38:19;;;;;;;12.80;6.50;;;;;;;25.27;56.95;99981.63;5103933;28;20536;-62
2022/08/26 06:40:48;;;;;;;9.60;6.70;;;;;;;25.27;57.83;99979.56;5105097;28;20173;-61
2022/08/26 06:43:14;;;;;;;15.63;6.97;;;;;;;25.31;56.84;99988.16;5108607;28;20212;-62
2022/08/26 06:45:44;;;;;;;9.20;5.80;;;;;;;25.32;56.92;99984.03;5103010;28;20912;-62
2022/08/26 06:48:09;;;;;;;10.03;7.13;;;;;;;25.31;56.43;99989.00;5104120;28;20458;-61
2022/08/26 06:50:35;;;;;;;16.13;6.40;;;;;;;25.07;57.36;99978.56;5107565;28;20518;-61
2022/08/26 06:53:00;;;;;;;14.70;6.53;;;;;;;25.15;56.74;99988.78;5106792;28;20224;-62
2022/08/26 06:55:26;;;;;;;13.93;6.47;;;;;;;25.12;56.49;99986.75;5107669;28;20182;-62
2022/08/26 06:57:52;;;;;;;10.43;5.93;;;;;;;25.20;56.18;99996.16;5098667;28;20189;-61
2022/08/26 07:00:18;;;;;;;7.00;5.73;;;;;;;25.06;56.48;99993.44;5100829;28;20622;-61
2022/08/26 07:02:43;;;;;;;21.97;7.07;;;;;;;25.14;55.89;99990.03;5104486;28;20166;-61
2022/08/26 07:05:09;;;;;;;12.27;5.97;;;;;;;24.96;55.99;99988.63;5099001;28;20439;-62
2022/08/26 07:07:35;;;;;;;16.70;5.70;;;;;;;25.03;56.07;99992.25;5091191;28;20178;-61
2022/08/26 07:10:00;;;;;;;14.13;6.23;;;;;;;24.94;56.22;99983.28;5086832;28;20229;-61
2022/08/26 07:12:26;;;;;;;10.17;6.10;;;;;;;25.07;55.93;99980.63;5091117;28;20738;-61
2022/08/26 07:14:51;;;;;;;10.77;6.03;;;;;;;24.96;56.05;99994.41;5088261;28;20637;-61
2022/08/26 07:17:17;;;;;;;7.83;5.53;;;;;;;24.76;57.97;99997.13;5099828;28;20197;-62
2022/08/26 07:19:44;;;;;;;9.50;5.53;;;;;;;25.03;57.10;99991.44;5087142;28;20604;-61
2022/08/26 07:22:10;;;;;;;11.73;6.20;;;;;;;25.12;56.48;99998.31;5097290;28;20248;-61
2022/08/26 07:24:37;;;;;;;10.90;6.40;;;;;;;24.98;56.75;99995.59;5094437;28;20899;-61
2022/08/26 07:27:05;;;;;;;13.90;6.10;;;;;;;24.79;57.05;99983.91;5092224;28;20454;-62
2022/08/26 07:29:31;;;;;;;11.43;6.20;;;;;;;24.92;57.25;99996.50;5094144;28;20458;-62
2022/08/26 07:31:56;;;;;;;8.70;5.30;;;;;;;24.97;57.22;99990.25;5084013;28;20802;-62
2022/08/26 07:34:50;;;;;;;15.53;6.00;;;;;;;25.06;57.78;99988.50;5074012;28;20197;-62
2022/08/26 07:37:15;;;;;;;7.33;5.70;;;;;;;24.49;59.05;99992.47;5070270;28;20256;-62
2022/08/26 07:39:41;;;;;;;13.83;7.00;;;;;;;24.29;61.20;99994.34;5080850;28;20433;-61
2022/08/26 07:42:07;;;;;;;7.60;5.53;;;;;;;24.45;59.70;99988.78;5081954;28;20174;-62
2022/08/26 07:44:33;;;;;;;13.83;5.87;;;;;;;24.63;58.57;99986.56;5066996;28;20238;-62
2022/08/26 07:46:58;;;;;;;15.50;6.63;;;;;;;24.63;58.64;99984.50;5055204;28;20504;-62
2022/08/26 07:49:25;;;;;;;14.90;6.30;;;;;;;24.73;59.45;99991.41;5068434;28;20174;-62
2022/08/26 07:51:51;;;;;;;12.70;7.00;;;;;;;24.71;59.47;99980.28;5083998;28;20517;-61
2022/08/26 07:54:17;;;;;;;12.80;6.97;;;;;;;24.76;58.41;99984.75;5075612;28;20456;-61
2022/08/26 07:56:43;;;;;;;11.53;6.10;;;;;;;24.71;58.09;99991.84;5089950;28;20562;-62
2022/08/26 07:59:09;;;;;;;13.57;6.73;;;;;;;24.86;57.91;99987.53;5078630;28;20433;-62
2022/08/26 08:01:35;;;;;;;19.47;6.40;;;;;;;24.97;57.50;99979.53;5073441;28;20421;-61
2022/08/26 08:04:01;;;;;;;10.00;6.10;;;;;;;25.02;57.77;99981.09;5071004;28;20406;-62
2022/08/26 08:06:26;;;;;;;9.60;5.70;;;;;;;25.07;58.09;99984.34;5072173;28;20269;-63
2022/08/26 08:08:51;;;;;;;12.47;6.37;;;;;;;25.14;57.60;99984.25;5076273;28;20368;-61
2022/08/26 08:11:19;;;;;;;13.03;6.30;;;;;;;25.19;58.45;99986.66;5071888;28;20210;-61
2022/08/26 08:13:45;;;;;;;16.30;5.27;;;;;;;25.19;59.08;99980.88;5070722;28;20675;-62
2022/08/26 08:16:10;;;;;;;11.40;5.70;;;;;;;25.19;58.74;99980.88;5059833;28;20434;-61
2022/08/26 08:18:36;;;;;;;14.43;6.17;;;;;;;25.22;58.41;99977.13;5070516;28;20522;-61
2022/08/26 08:21:02;;;;;;;10.73;6.83;;;;;;;25.13;57.90;99984.69;5071438;28;20193;-62
2022/08/26 08:23:29;;;;;;;11.97;5.87;;;;;;;25.09;58.11;99987.59;5072264;28;20203;-61
2022/08/26 08:26:01;;;;;;;11.33;6.10;;;;;;;25.08;57.55;99983.09;5054271;28;20413;-61
2022/08/26 08:28:27;;;;;;;15.10;6.23;;;;;;;25.20;57.52;99978.81;5072163;28;20505;-61
2022/08/26 08:30:52;;;;;;;8.50;6.67;;;;;;;25.07;57.68;99983.53;5070695;28;20413;-61
2022/08/26 08:33:18;;;;;;;8.83;5.80;;;;;;;25.09;57.98;99975.25;5071948;28;20575;-62
2022/08/26 08:35:44;;;;;;;8.17;6.20;;;;;;;25.15;57.84;99974.34;5071167;28;20266;-61
2022/08/26 08:38:10;;;;;;;8.67;6.40;;;;;;;25.23;57.24;99986.63;5072496;28;20183;-62
2022/08/26 08:40:37;;;;;;;9.30;6.03;;;;;;;25.27;57.53;99982.44;5070820;28;20428;-61
2022/08/26 08:43:06;;;;;;;11.33;5.70;;;;;;;25.29;57.31;99976.25;5053820;28;20175;-61
2022/08/26 08:45:35;;;;;;;21.93;6.97;;;;;;;25.32;57.54;99984.84;5050282;28;20422;-61
2022/08/26 08:48:04;;;;;;;8.40;6.20;;;;;;;25.29;57.63;99985.72;5051328;28;20445;-61
2022/08/26 08:50:38;;;;;;;8.90;6.30;;;;;;;25.34;56.89;99981.53;5037636;28;20875;-62
2022/08/26 08:53:09;;;;;;;9.90;6.20;;;;;;;25.35;57.05;99981.09;5049870;28;20571;-61
2022/08/26 08:55:43;;;;;;;15.87;6.93;;;;;;;25.37;57.02;99987.25;5050861;28;20807;-62
2022/08/26 08:58:14;;;;;;;12.17;6.37;;;;;;;25.41;56.54;99982.25;5034717;28;20418;-62
2022/08/26 09:01:03;;;;;;;8.30;6.40;;;;;;;25.39;56.40;99978.97;5050551;28;21052;-61
2022/08/26 09:03:43;;;;;;;11.77;6.17;;;;;;;25.40;56.62;99976.91;5051969;28;20402;-61
2022/08/26 09:06:15;;;;;;;7.57;6.00;;;;;;;25.46;56.25;99981.75;5051535;28;20564;-61
2022/08/26 09:08:41;;;;;;;6.90;5.50;;;;;;;25.35;56.45;99978.22;5049778;28;20731;-61
2022/08/26 09:11:07;;;;;;;9.87;6.57;;;;;;;25.43;56.57;99984.72;5032673;28;20429;-62
2022/08/26 09:13:32;;;;;;;10.40;6.33;;;;;;;25.45;56.78;99980.13;5051037;28;20160;-62
2022/08/26 09:16:06;;;;;;;10.90;6.47;;;;;;;25.45;55.98;99971.47;5051186;28;20167;-61
2022/08/26 09:18:38;;;;;;;8.23;6.13;;;;;;;25.49;56.14;99974.28;5051315;28;20171;-61
2022/08/26 09:21:05;;;;;;;8.50;6.00;;;;;;;25.52;56.26;99970.50;5063821;28;20474;-61
2022/08/26 09:23:32;;;;;;;9.53;5.90;;;;;;;25.51;56.31;99963.94;5071654;28;20398;-63
2022/08/26 09:26:18;;;;;;;13.80;6.77;;;;;;;25.54;56.56;99957.25;5053530;28;20982;-61
2022/08/26 09:28:53;;;;;;;13.20;6.93;;;;;;;25.56;55.75;99969.22;5070881;28;20429;-61
2022/08/26 09:31:27;;;;;;;9.97;5.83;;;;;;;25.56;56.09;99966.31;5053677;28;20416;-62
2022/08/26 09:34:12;;;;;;;9.57;6.13;;;;;;;25.58;55.75;99958.03;5069270;28;20488;-61
2022/08/26 09:36:45;;;;;;;7.63;6.10;;;;;;;25.59;56.30;99959.66;5069813;28;20440;-61
2022/08/26 09:39:22;;;;;;;7.80;5.20;;;;;;;25.60;56.22;99952.63;5069600;28;20415;-61
2022/08/26 09:42:03;;;;;;;11.07;6.17;;;;;;;25.66;56.07;99955.81;5071062;28;20823;-61
2022/08/26 09:44:30;;;;;;;7.57;5.30;;;;;;;25.71;55.75;99949.53;5070360;28;20421;-61
2022/08/26 09:47:00;;;;;;;12.07;6.47;;;;;;;25.69;55.89;99940.50;5069662;28;20472;-61
2022/08/26 09:49:31;;;;;;;7.77;6.03;;;;;;;25.76;55.90;99944.09;5069350;28;20933;-61
2022/08/26 09:52:12;;;;;;;21.80;6.67;;;;;;;25.78;55.18;99944.47;5068615;28;20502;-62
2022/08/26 09:54:38;;;;;;;12.50;6.23;;;;;;;25.79;55.17;99940.31;5066639;28;20445;-62
2022/08/26 09:57:18;;;;;;;13.57;6.73;;;;;;;25.73;55.82;99942.06;5046657;28;20962;-61
2022/08/26 09:59:44;;;;;;;6.60;5.90;;;;;;;25.72;55.34;99931.75;5055633;28;20187;-62
2022/08/26 10:02:33;;;;;;;8.33;5.90;;;;;;;25.78;54.82;99926.28;5067723;28;20845;-61
2022/08/26 10:05:00;;;;;;;14.03;6.03;;;;;;;25.75;54.90;99927.19;5071056;28;20269;-61
2022/08/26 10:07:39;;;;;;;7.47;5.90;;;;;;;25.75;55.17;99921.38;5052295;28;20448;-61
2022/08/26 10:10:21;;;;;;;8.80;6.13;;;;;;;25.75;55.39;99915.59;5069750;28;20415;-61
2022/08/26 10:13:00;;;;;;;10.70;5.90;;;;;;;25.90;54.89;99920.69;5069202;28;20477;-61
2022/08/26 10:15:25;;;;;;;9.00;6.40;;;;;;;25.87;54.90;99918.69;5054072;28;20449;-61
2022/08/26 10:17:59;;;;;;;7.03;5.53;;;;;;;25.86;54.71;99911.28;5068795;28;20452;-61
2022/08/26 10:20:26;;;;;;;11.10;6.10;;;;;;;25.84;54.67;99902.22;5070473;28;20179;-61
2022/08/26 10:22:58;;;;;;;8.60;5.50;;;;;;;25.80;55.20;99895.66;5052477;28;20504;-61
2022/08/26 10:25:28;;;;;;;13.20;5.67;;;;;;;25.84;54.61;99896.41;5069399;28;20922;-61
2022/08/26 10:28:01;;;;;;;7.90;6.00;;;;;;;25.88;55.07;99887.66;5069212;28;20510;-61
2022/08/26 10:30:30;;;;;;;6.83;5.73;;;;;;;25.93;55.12;99888.03;5070640;28;20508;-61
2022/08/26 10:33:08;;;;;;;7.50;5.20;;;;;;;25.96;55.08;99883.44;5065579;28;20818;-60
2022/08/26 10:35:35;;;;;;;7.57;5.73;;;;;;;25.92;54.70;99885.56;5033328;28;20433;-62
2022/08/26 10:38:03;;;;;;;9.07;5.57;;;;;;;25.94;55.10;99886.75;5059722;28;20421;-62
2022/08/26 10:40:44;;;;;;;9.63;5.60;;;;;;;25.93;54.79;99875.63;5069469;28;20449;-61
2022/08/26 10:43:20;;;;;;;8.40;6.10;;;;;;;25.98;54.49;99878.00;5070204;28;20405;-60
2022/08/26 10:45:49;;;;;;;13.17;6.07;;;;;;;25.99;54.88;99877.56;5068476;28;20849;-61
2022/08/26 10:48:40;;;;;;;10.33;6.03;;;;;;;26.08;54.30;99877.81;5068316;28;20421;-61
2022/08/26 10:51:05;;;;;;;6.63;5.07;;;;;;;26.10;54.43;99875.28;5053414;28;20418;-61
2022/08/26 10:53:35;;;;;;;10.03;6.37;;;;;;;26.14;54.43;99869.47;5068168;28;21307;-62
2022/08/26 10:56:22;;;;;;;7.67;5.60;;;;;;;26.15;54.41;99871.09;5068738;28;20210;-61
2022/08/26 10:58:54;;;;;;;8.40;5.50;;;;;;;26.33;53.79;99863.66;5070207;28;20417;-61
2022/08/26 11:01:49;;;;;;;11.97;6.00;;;;;;;26.18;54.31;99855.72;5073304;28;20471;-61
2022/08/26 11:04:39;;;;;;;9.80;6.77;;;;;;;26.19;54.33;99861.06;5073170;28;20516;-61
2022/08/26 11:07:36;;;;;;;7.83;6.03;;;;;;;26.13;54.28;99844.66;5071715;28;20908;-62
2022/08/26 11:10:17;;;;;;;9.17;5.87;;;;;;;26.12;54.24;99851.69;5073439;28;20411;-61
2022/08/26 11:12:44;;;;;;;9.30;5.37;;;;;;;26.08;54.59;99860.47;5072562;28;20476;-61
2022/08/26 11:15:19;;;;;;;6.67;5.40;;;;;;;26.08;54.69;99848.88;5073898;28;20891;-62
2022/08/26 11:17:47;;;;;;;6.60;5.53;;;;;;;26.17;54.54;99846.22;5074173;28;20444;-62
2022/08/26 11:20:21;;;;;;;8.30;5.40;;;;;;;26.23;54.15;99844.44;5072437;28;20570;-61
2022/08/26 11:22:50;;;;;;;10.20;6.07;;;;;;;26.29;54.06;99848.44;5073703;28;20927;-61
2022/08/26 11:25:22;;;;;;;12.67;6.23;;;;;;;26.19;54.32;99837.91;5073783;28;20441;-61
2022/08/26 11:27:49;;;;;;;7.43;5.37;;;;;;;26.29;54.15;99833.97;5072406;28;20405;-62
2022/08/26 11:30:14;;;;;;;7.00;5.33;;;;;;;26.30;53.63;99829.00;5073741;28;21022;-61
2022/08/26 11:32:40;;;;;;;8.10;5.93;;;;;;;26.34;53.71;99835.56;5073430;28;20528;-61
2022/08/26 11:35:07;;;;;;;10.80;6.07;;;;;;;26.40;53.38;99827.97;5073615;28;20196;-61
2022/08/26 11:37:40;;;;;;;8.47;5.50;;;;;;;26.40;53.02;99831.66;5073727;28;20186;-62
2022/08/26 11:40:20;;;;;;;10.47;5.93;;;;;;;26.37;52.68;99821.00;5056246;28;20470;-61
2022/08/26 11:42:50;;;;;;;21.97;6.23;;;;;;;26.40;52.74;99820.09;5072012;28;20949;-61
2022/08/26 11:45:39;;;;;;;14.73;6.60;;;;;;;26.48;52.00;99817.84;5071063;28;20446;-62